sensor_id;sensor_type;location;lat;lon;timestamp;P1;durP1;ratioP1;P2;durP2;ratioP2
67804;SDS011;54603;45.638;11.714;2023-03-03T00:01:30;6.30;;;4.80;;
67804;SDS011;54603;45.638;11.714;2023-03-03T00:03:57;8.00;;;5.10;;
67804;SDS011;54603;45.638;11.714;2023-03-03T00:06:23;7.40;;;5.30;;
67804;SDS011;54603;45.638;11.714;2023-03-03T00:08:49;7.20;;;5.30;;
67804;SDS011;54603;45.638;11.714;2023-03-03T00:11:14;6.20;;;4.80;;
67804;SDS011;54603;45.638;11.714;2023-03-03T00:19:02;6.30;;;4.90;;
67804;SDS011;54603;45.638;11.714;2023-03-03T00:21:41;5.60;;;4.80;;
67804;SDS011;54603;45.638;11.714;2023-03-03T00:26:52;7.10;;;5.10;;
67804;SDS011;54603;45.638;11.714;2023-03-03T00:29:29;7.70;;;4.80;;
67804;SDS011;54603;45.638;11.714;2023-03-03T00:34:37;6.40;;;4.80;;
67804;SDS011;54603;45.638;11.714;2023-03-03T00:37:03;6.30;;;5.00;;
67804;SDS011;54603;45.638;11.714;2023-03-03T00:39:48;7.20;;;4.80;;
67804;SDS011;54603;45.638;11.714;2023-03-03T00:42:14;5.90;;;4.90;;
67804;SDS011;54603;45.638;11.714;2023-03-03T00:47:18;7.00;;;4.80;;
67804;SDS011;54603;45.638;11.714;2023-03-03T00:49:50;6.10;;;4.70;;
67804;SDS011;54603;45.638;11.714;2023-03-03T00:52:20;6.40;;;4.80;;
67804;SDS011;54603;45.638;11.714;2023-03-03T00:54:46;8.50;;;5.10;;
67804;SDS011;54603;45.638;11.714;2023-03-03T00:57:11;8.70;;;4.90;;
67804;SDS011;54603;45.638;11.714;2023-03-03T00:59:37;7.90;;;5.50;;
67804;SDS011;54603;45.638;11.714;2023-03-03T01:02:04;7.40;;;4.50;;
67804;SDS011;54603;45.638;11.714;2023-03-03T01:04:30;7.00;;;5.00;;
67804;SDS011;54603;45.638;11.714;2023-03-03T01:06:55;7.10;;;5.00;;
67804;SDS011;54603;45.638;11.714;2023-03-03T01:09:21;7.10;;;5.50;;
67804;SDS011;54603;45.638;11.714;2023-03-03T01:11:47;5.80;;;4.90;;
67804;SDS011;54603;45.638;11.714;2023-03-03T01:14:13;5.60;;;4.80;;
67804;SDS011;54603;45.638;11.714;2023-03-03T01:16:39;5.90;;;4.90;;
67804;SDS011;54603;45.638;11.714;2023-03-03T01:19:06;7.50;;;5.00;;
67804;SDS011;54603;45.638;11.714;2023-03-03T01:21:32;7.10;;;5.10;;
67804;SDS011;54603;45.638;11.714;2023-03-03T01:23:57;7.40;;;5.10;;
67804;SDS011;54603;45.638;11.714;2023-03-03T01:26:23;7.60;;;4.90;;
67804;SDS011;54603;45.638;11.714;2023-03-03T01:28:49;6.80;;;4.60;;
67804;SDS011;54603;45.638;11.714;2023-03-03T01:31:14;8.80;;;5.10;;
67804;SDS011;54603;45.638;11.714;2023-03-03T01:33:40;8.20;;;4.80;;
67804;SDS011;54603;45.638;11.714;2023-03-03T01:36:05;5.80;;;4.70;;
67804;SDS011;54603;45.638;11.714;2023-03-03T01:38:34;7.00;;;4.80;;
67804;SDS011;54603;45.638;11.714;2023-03-03T01:41:00;6.40;;;4.90;;
67804;SDS011;54603;45.638;11.714;2023-03-03T01:43:27;6.20;;;5.40;;
67804;SDS011;54603;45.638;11.714;2023-03-03T01:51:21;6.00;;;4.80;;
67804;SDS011;54603;45.638;11.714;2023-03-03T01:53:45;6.60;;;5.30;;
67804;SDS011;54603;45.638;11.714;2023-03-03T01:58:45;7.30;;;5.00;;
67804;SDS011;54603;45.638;11.714;2023-03-03T02:01:16;6.70;;;5.10;;
67804;SDS011;54603;45.638;11.714;2023-03-03T02:03:44;6.20;;;4.70;;
67804;SDS011;54603;45.638;11.714;2023-03-03T02:06:14;6.90;;;4.70;;
67804;SDS011;54603;45.638;11.714;2023-03-03T02:08:47;7.20;;;5.60;;
67804;SDS011;54603;45.638;11.714;2023-03-03T02:11:17;6.30;;;4.80;;
67804;SDS011;54603;45.638;11.714;2023-03-03T02:13:44;6.40;;;4.70;;
67804;SDS011;54603;45.638;11.714;2023-03-03T02:16:09;6.90;;;5.10;;
67804;SDS011;54603;45.638;11.714;2023-03-03T02:18:35;7.80;;;4.60;;
67804;SDS011;54603;45.638;11.714;2023-03-03T02:21:20;5.90;;;4.80;;
67804;SDS011;54603;45.638;11.714;2023-03-03T02:26:22;7.80;;;5.10;;
67804;SDS011;54603;45.638;11.714;2023-03-03T02:28:49;5.90;;;4.80;;
67804;SDS011;54603;45.638;11.714;2023-03-03T02:31:17;8.00;;;5.00;;
67804;SDS011;54603;45.638;11.714;2023-03-03T02:33:46;6.20;;;5.00;;
67804;SDS011;54603;45.638;11.714;2023-03-03T02:36:18;5.40;;;4.60;;
67804;SDS011;54603;45.638;11.714;2023-03-03T02:38:48;6.60;;;4.60;;
67804;SDS011;54603;45.638;11.714;2023-03-03T02:44:24;6.70;;;5.10;;
67804;SDS011;54603;45.638;11.714;2023-03-03T02:46:52;6.30;;;4.90;;
67804;SDS011;54603;45.638;11.714;2023-03-03T02:49:22;6.30;;;4.40;;
67804;SDS011;54603;45.638;11.714;2023-03-03T02:51:52;6.60;;;4.80;;
67804;SDS011;54603;45.638;11.714;2023-03-03T02:54:18;5.30;;;4.40;;
67804;SDS011;54603;45.638;11.714;2023-03-03T02:56:45;5.70;;;4.60;;
67804;SDS011;54603;45.638;11.714;2023-03-03T02:59:11;5.60;;;4.60;;
67804;SDS011;54603;45.638;11.714;2023-03-03T03:01:37;5.60;;;4.00;;
67804;SDS011;54603;45.638;11.714;2023-03-03T03:04:04;5.90;;;4.60;;
67804;SDS011;54603;45.638;11.714;2023-03-03T03:06:32;5.60;;;4.40;;
67804;SDS011;54603;45.638;11.714;2023-03-03T03:08:58;5.10;;;4.40;;
67804;SDS011;54603;45.638;11.714;2023-03-03T03:11:24;6.40;;;4.50;;
67804;SDS011;54603;45.638;11.714;2023-03-03T03:13:50;6.20;;;4.70;;
67804;SDS011;54603;45.638;11.714;2023-03-03T03:16:17;4.90;;;4.10;;
67804;SDS011;54603;45.638;11.714;2023-03-03T03:18:42;6.10;;;4.40;;
67804;SDS011;54603;45.638;11.714;2023-03-03T03:21:08;6.80;;;4.90;;
67804;SDS011;54603;45.638;11.714;2023-03-03T03:23:35;6.40;;;4.70;;
67804;SDS011;54603;45.638;11.714;2023-03-03T03:26:01;5.70;;;4.70;;
67804;SDS011;54603;45.638;11.714;2023-03-03T03:28:26;6.60;;;4.50;;
67804;SDS011;54603;45.638;11.714;2023-03-03T03:30:52;7.30;;;4.50;;
67804;SDS011;54603;45.638;11.714;2023-03-03T03:33:18;6.30;;;4.50;;
67804;SDS011;54603;45.638;11.714;2023-03-03T03:35:43;5.60;;;4.40;;
67804;SDS011;54603;45.638;11.714;2023-03-03T03:38:12;5.50;;;4.40;;
67804;SDS011;54603;45.638;11.714;2023-03-03T03:40:38;4.90;;;4.10;;
67804;SDS011;54603;45.638;11.714;2023-03-03T03:43:04;4.50;;;4.00;;
67804;SDS011;54603;45.638;11.714;2023-03-03T03:45:29;6.00;;;4.30;;
67804;SDS011;54603;45.638;11.714;2023-03-03T03:47:55;4.90;;;4.20;;
67804;SDS011;54603;45.638;11.714;2023-03-03T03:50:20;5.80;;;4.20;;
67804;SDS011;54603;45.638;11.714;2023-03-03T03:52:46;5.90;;;4.10;;
67804;SDS011;54603;45.638;11.714;2023-03-03T03:55:12;7.00;;;4.20;;
67804;SDS011;54603;45.638;11.714;2023-03-03T03:57:39;6.90;;;4.20;;
67804;SDS011;54603;45.638;11.714;2023-03-03T04:00:05;5.20;;;4.20;;
67804;SDS011;54603;45.638;11.714;2023-03-03T04:02:32;5.20;;;4.30;;
67804;SDS011;54603;45.638;11.714;2023-03-03T04:04:59;5.60;;;4.10;;
67804;SDS011;54603;45.638;11.714;2023-03-03T04:07:24;6.80;;;4.40;;
67804;SDS011;54603;45.638;11.714;2023-03-03T04:09:50;5.20;;;4.20;;
67804;SDS011;54603;45.638;11.714;2023-03-03T04:12:15;6.20;;;4.60;;
67804;SDS011;54603;45.638;11.714;2023-03-03T04:14:41;6.10;;;4.30;;
67804;SDS011;54603;45.638;11.714;2023-03-03T04:17:07;5.50;;;4.20;;
67804;SDS011;54603;45.638;11.714;2023-03-03T04:19:32;5.80;;;4.60;;
67804;SDS011;54603;45.638;11.714;2023-03-03T04:21:58;6.40;;;4.30;;
67804;SDS011;54603;45.638;11.714;2023-03-03T04:24:23;6.50;;;4.50;;
67804;SDS011;54603;45.638;11.714;2023-03-03T04:26:49;5.90;;;4.20;;
67804;SDS011;54603;45.638;11.714;2023-03-03T04:29:14;7.50;;;4.50;;
67804;SDS011;54603;45.638;11.714;2023-03-03T04:31:40;6.30;;;4.10;;
67804;SDS011;54603;45.638;11.714;2023-03-03T04:34:05;6.10;;;4.30;;
67804;SDS011;54603;45.638;11.714;2023-03-03T04:36:31;5.00;;;4.20;;
67804;SDS011;54603;45.638;11.714;2023-03-03T04:38:56;5.20;;;4.30;;
67804;SDS011;54603;45.638;11.714;2023-03-03T04:41:22;6.30;;;4.50;;
67804;SDS011;54603;45.638;11.714;2023-03-03T04:43:48;6.10;;;4.30;;
67804;SDS011;54603;45.638;11.714;2023-03-03T04:46:13;4.30;;;3.60;;
67804;SDS011;54603;45.638;11.714;2023-03-03T04:48:39;6.20;;;4.30;;
67804;SDS011;54603;45.638;11.714;2023-03-03T04:51:04;4.40;;;4.00;;
67804;SDS011;54603;45.638;11.714;2023-03-03T04:53:30;4.80;;;4.10;;
67804;SDS011;54603;45.638;11.714;2023-03-03T04:55:55;4.50;;;3.70;;
67804;SDS011;54603;45.638;11.714;2023-03-03T04:58:21;4.80;;;4.00;;
67804;SDS011;54603;45.638;11.714;2023-03-03T05:00:47;5.60;;;4.20;;
67804;SDS011;54603;45.638;11.714;2023-03-03T05:03:18;5.10;;;4.20;;
67804;SDS011;54603;45.638;11.714;2023-03-03T05:05:45;5.10;;;3.90;;
67804;SDS011;54603;45.638;11.714;2023-03-03T05:08:11;5.00;;;3.90;;
67804;SDS011;54603;45.638;11.714;2023-03-03T05:10:37;6.20;;;4.20;;
67804;SDS011;54603;45.638;11.714;2023-03-03T05:13:02;5.20;;;4.30;;
67804;SDS011;54603;45.638;11.714;2023-03-03T05:15:29;5.60;;;4.00;;
67804;SDS011;54603;45.638;11.714;2023-03-03T05:17:55;4.60;;;4.00;;
67804;SDS011;54603;45.638;11.714;2023-03-03T05:20:21;5.10;;;4.10;;
67804;SDS011;54603;45.638;11.714;2023-03-03T05:22:46;5.70;;;4.30;;
67804;SDS011;54603;45.638;11.714;2023-03-03T05:25:12;4.40;;;3.80;;
67804;SDS011;54603;45.638;11.714;2023-03-03T05:27:38;7.10;;;4.10;;
67804;SDS011;54603;45.638;11.714;2023-03-03T05:30:04;4.70;;;4.00;;
67804;SDS011;54603;45.638;11.714;2023-03-03T05:32:29;4.80;;;3.80;;
67804;SDS011;54603;45.638;11.714;2023-03-03T05:34:55;7.50;;;3.90;;
67804;SDS011;54603;45.638;11.714;2023-03-03T05:37:21;4.70;;;3.70;;
67804;SDS011;54603;45.638;11.714;2023-03-03T05:39:48;5.50;;;3.90;;
67804;SDS011;54603;45.638;11.714;2023-03-03T05:42:14;5.80;;;4.20;;
67804;SDS011;54603;45.638;11.714;2023-03-03T05:44:40;6.40;;;4.10;;
67804;SDS011;54603;45.638;11.714;2023-03-03T05:47:05;5.70;;;4.00;;
67804;SDS011;54603;45.638;11.714;2023-03-03T05:49:31;4.80;;;3.90;;
67804;SDS011;54603;45.638;11.714;2023-03-03T05:51:56;5.10;;;4.00;;
67804;SDS011;54603;45.638;11.714;2023-03-03T05:54:23;5.50;;;3.70;;
67804;SDS011;54603;45.638;11.714;2023-03-03T05:56:48;5.00;;;3.90;;
67804;SDS011;54603;45.638;11.714;2023-03-03T05:59:14;5.10;;;4.00;;
67804;SDS011;54603;45.638;11.714;2023-03-03T06:01:39;5.40;;;4.00;;
67804;SDS011;54603;45.638;11.714;2023-03-03T06:04:05;6.70;;;3.90;;
67804;SDS011;54603;45.638;11.714;2023-03-03T06:06:30;4.80;;;3.70;;
67804;SDS011;54603;45.638;11.714;2023-03-03T06:08:56;4.70;;;3.70;;
67804;SDS011;54603;45.638;11.714;2023-03-03T06:11:22;4.80;;;3.80;;
67804;SDS011;54603;45.638;11.714;2023-03-03T06:13:47;4.60;;;3.50;;
67804;SDS011;54603;45.638;11.714;2023-03-03T06:16:17;4.60;;;3.60;;
67804;SDS011;54603;45.638;11.714;2023-03-03T06:18:43;5.30;;;3.80;;
67804;SDS011;54603;45.638;11.714;2023-03-03T06:21:08;5.20;;;3.80;;
67804;SDS011;54603;45.638;11.714;2023-03-03T06:23:34;5.60;;;3.90;;
67804;SDS011;54603;45.638;11.714;2023-03-03T06:25:59;5.00;;;3.40;;
67804;SDS011;54603;45.638;11.714;2023-03-03T06:28:25;4.90;;;3.60;;
67804;SDS011;54603;45.638;11.714;2023-03-03T06:30:54;4.60;;;3.80;;
67804;SDS011;54603;45.638;11.714;2023-03-03T06:33:20;5.80;;;3.70;;
67804;SDS011;54603;45.638;11.714;2023-03-03T06:35:49;4.40;;;3.70;;
67804;SDS011;54603;45.638;11.714;2023-03-03T06:38:16;4.60;;;3.70;;
67804;SDS011;54603;45.638;11.714;2023-03-03T06:40:41;4.90;;;3.70;;
67804;SDS011;54603;45.638;11.714;2023-03-03T06:43:07;4.00;;;3.50;;
67804;SDS011;54603;45.638;11.714;2023-03-03T06:45:33;4.80;;;3.60;;
67804;SDS011;54603;45.638;11.714;2023-03-03T06:47:59;5.70;;;3.70;;
67804;SDS011;54603;45.638;11.714;2023-03-03T06:50:24;6.00;;;3.80;;
67804;SDS011;54603;45.638;11.714;2023-03-03T06:52:51;7.80;;;3.70;;
67804;SDS011;54603;45.638;11.714;2023-03-03T06:55:32;7.70;;;3.70;;
67804;SDS011;54603;45.638;11.714;2023-03-03T06:57:58;5.50;;;3.90;;
67804;SDS011;54603;45.638;11.714;2023-03-03T07:00:24;5.60;;;3.30;;
67804;SDS011;54603;45.638;11.714;2023-03-03T07:03:01;6.70;;;3.70;;
67804;SDS011;54603;45.638;11.714;2023-03-03T07:05:33;6.50;;;3.40;;
67804;SDS011;54603;45.638;11.714;2023-03-03T07:07:58;6.80;;;4.40;;
67804;SDS011;54603;45.638;11.714;2023-03-03T07:10:25;6.30;;;4.10;;
67804;SDS011;54603;45.638;11.714;2023-03-03T07:12:53;4.90;;;3.40;;
67804;SDS011;54603;45.638;11.714;2023-03-03T07:15:23;11.80;;;3.80;;
67804;SDS011;54603;45.638;11.714;2023-03-03T07:17:54;8.40;;;3.60;;
67804;SDS011;54603;45.638;11.714;2023-03-03T07:20:27;5.50;;;3.80;;
67804;SDS011;54603;45.638;11.714;2023-03-03T07:23:14;4.70;;;3.50;;
67804;SDS011;54603;45.638;11.714;2023-03-03T07:25:48;5.20;;;3.80;;
67804;SDS011;54603;45.638;11.714;2023-03-03T07:28:28;4.50;;;3.80;;
67804;SDS011;54603;45.638;11.714;2023-03-03T07:30:54;9.30;;;4.00;;
67804;SDS011;54603;45.638;11.714;2023-03-03T07:33:25;5.80;;;3.40;;
67804;SDS011;54603;45.638;11.714;2023-03-03T07:35:54;5.60;;;3.60;;
67804;SDS011;54603;45.638;11.714;2023-03-03T07:38:37;5.10;;;3.60;;
67804;SDS011;54603;45.638;11.714;2023-03-03T07:41:11;4.50;;;3.40;;
67804;SDS011;54603;45.638;11.714;2023-03-03T07:46:40;4.80;;;3.40;;
67804;SDS011;54603;45.638;11.714;2023-03-03T07:51:54;6.70;;;3.60;;
67804;SDS011;54603;45.638;11.714;2023-03-03T07:54:28;5.70;;;3.70;;
67804;SDS011;54603;45.638;11.714;2023-03-03T07:57:01;5.10;;;3.20;;
67804;SDS011;54603;45.638;11.714;2023-03-03T07:59:43;10.90;;;3.60;;
67804;SDS011;54603;45.638;11.714;2023-03-03T08:02:32;4.50;;;3.30;;
67804;SDS011;54603;45.638;11.714;2023-03-03T08:05:01;4.40;;;3.30;;
67804;SDS011;54603;45.638;11.714;2023-03-03T08:07:50;6.50;;;3.30;;
67804;SDS011;54603;45.638;11.714;2023-03-03T08:10:30;5.60;;;3.40;;
67804;SDS011;54603;45.638;11.714;2023-03-03T08:13:27;4.70;;;3.20;;
67804;SDS011;54603;45.638;11.714;2023-03-03T08:18:43;3.50;;;3.00;;
67804;SDS011;54603;45.638;11.714;2023-03-03T08:21:20;8.40;;;3.60;;
67804;SDS011;54603;45.638;11.714;2023-03-03T08:23:47;5.20;;;3.30;;
67804;SDS011;54603;45.638;11.714;2023-03-03T08:26:20;4.90;;;3.50;;
67804;SDS011;54603;45.638;11.714;2023-03-03T08:28:46;6.20;;;3.40;;
67804;SDS011;54603;45.638;11.714;2023-03-03T08:31:13;4.70;;;3.00;;
67804;SDS011;54603;45.638;11.714;2023-03-03T08:33:39;4.70;;;3.20;;
67804;SDS011;54603;45.638;11.714;2023-03-03T08:36:05;3.70;;;2.80;;
67804;SDS011;54603;45.638;11.714;2023-03-03T08:38:32;4.40;;;3.40;;
67804;SDS011;54603;45.638;11.714;2023-03-03T08:40:58;3.50;;;2.90;;
67804;SDS011;54603;45.638;11.714;2023-03-03T08:43:24;4.90;;;3.10;;
67804;SDS011;54603;45.638;11.714;2023-03-03T08:45:51;4.10;;;3.10;;
67804;SDS011;54603;45.638;11.714;2023-03-03T08:48:18;5.50;;;2.80;;
67804;SDS011;54603;45.638;11.714;2023-03-03T08:50:44;4.70;;;3.00;;
67804;SDS011;54603;45.638;11.714;2023-03-03T08:53:10;4.60;;;3.50;;
67804;SDS011;54603;45.638;11.714;2023-03-03T08:55:37;5.80;;;3.30;;
67804;SDS011;54603;45.638;11.714;2023-03-03T08:58:04;4.20;;;3.10;;
67804;SDS011;54603;45.638;11.714;2023-03-03T09:00:30;4.30;;;3.00;;
67804;SDS011;54603;45.638;11.714;2023-03-03T09:02:55;4.70;;;2.90;;
67804;SDS011;54603;45.638;11.714;2023-03-03T09:05:22;3.90;;;3.20;;
67804;SDS011;54603;45.638;11.714;2023-03-03T09:07:48;6.20;;;3.40;;
67804;SDS011;54603;45.638;11.714;2023-03-03T09:10:17;5.80;;;3.40;;
67804;SDS011;54603;45.638;11.714;2023-03-03T09:12:56;6.60;;;4.00;;
67804;SDS011;54603;45.638;11.714;2023-03-03T09:15:29;4.60;;;2.90;;
67804;SDS011;54603;45.638;11.714;2023-03-03T09:17:57;5.80;;;3.30;;
67804;SDS011;54603;45.638;11.714;2023-03-03T09:20:41;4.70;;;3.40;;
67804;SDS011;54603;45.638;11.714;2023-03-03T09:23:20;3.90;;;3.00;;
67804;SDS011;54603;45.638;11.714;2023-03-03T09:25:50;5.20;;;3.00;;
67804;SDS011;54603;45.638;11.714;2023-03-03T09:30:48;6.70;;;3.50;;
67804;SDS011;54603;45.638;11.714;2023-03-03T09:33:30;7.40;;;3.30;;
67804;SDS011;54603;45.638;11.714;2023-03-03T09:36:18;7.20;;;3.70;;
67804;SDS011;54603;45.638;11.714;2023-03-03T09:38:48;6.40;;;3.30;;
67804;SDS011;54603;45.638;11.714;2023-03-03T09:41:30;6.70;;;3.30;;
67804;SDS011;54603;45.638;11.714;2023-03-03T10:01:25;4.90;;;3.40;;
67804;SDS011;54603;45.638;11.714;2023-03-03T10:04:21;7.70;;;3.30;;
67804;SDS011;54603;45.638;11.714;2023-03-03T10:07:14;6.90;;;3.40;;
67804;SDS011;54603;45.638;11.714;2023-03-03T10:21:03;6.90;;;3.60;;
67804;SDS011;54603;45.638;11.714;2023-03-03T10:23:55;5.60;;;3.10;;
67804;SDS011;54603;45.638;11.714;2023-03-03T10:29:39;6.50;;;3.50;;
67804;SDS011;54603;45.638;11.714;2023-03-03T10:35:37;8.80;;;3.20;;
67804;SDS011;54603;45.638;11.714;2023-03-03T11:05:59;7.90;;;3.40;;
67804;SDS011;54603;45.638;11.714;2023-03-03T11:08:26;5.70;;;3.30;;
67804;SDS011;54603;45.638;11.714;2023-03-03T11:14:14;4.70;;;3.50;;
67804;SDS011;54603;45.638;11.714;2023-03-03T11:22:09;5.30;;;3.70;;
67804;SDS011;54603;45.638;11.714;2023-03-03T11:30:11;7.00;;;3.60;;
67804;SDS011;54603;45.638;11.714;2023-03-03T11:32:52;6.60;;;3.40;;
67804;SDS011;54603;45.638;11.714;2023-03-03T11:35:22;6.60;;;3.70;;
67804;SDS011;54603;45.638;11.714;2023-03-03T11:38:13;6.70;;;3.60;;
67804;SDS011;54603;45.638;11.714;2023-03-03T11:40:54;5.80;;;3.20;;
67804;SDS011;54603;45.638;11.714;2023-03-03T11:43:27;5.40;;;3.10;;
67804;SDS011;54603;45.638;11.714;2023-03-03T11:45:58;5.60;;;3.20;;
67804;SDS011;54603;45.638;11.714;2023-03-03T11:51:06;8.20;;;3.70;;
67804;SDS011;54603;45.638;11.714;2023-03-03T11:53:44;7.20;;;3.50;;
67804;SDS011;54603;45.638;11.714;2023-03-03T11:56:22;6.60;;;3.30;;
67804;SDS011;54603;45.638;11.714;2023-03-03T11:58:57;8.70;;;3.50;;
67804;SDS011;54603;45.638;11.714;2023-03-03T12:01:29;6.20;;;3.10;;
67804;SDS011;54603;45.638;11.714;2023-03-03T12:06:32;5.50;;;3.00;;
67804;SDS011;54603;45.638;11.714;2023-03-03T12:12:32;4.90;;;3.10;;
67804;SDS011;54603;45.638;11.714;2023-03-03T12:17:59;5.80;;;3.20;;
67804;SDS011;54603;45.638;11.714;2023-03-03T12:21:02;8.00;;;3.00;;
67804;SDS011;54603;45.638;11.714;2023-03-03T12:23:49;6.50;;;2.90;;
67804;SDS011;54603;45.638;11.714;2023-03-03T12:26:28;11.60;;;3.20;;
67804;SDS011;54603;45.638;11.714;2023-03-03T12:40:23;4.90;;;2.60;;
67804;SDS011;54603;45.638;11.714;2023-03-03T12:43:01;7.50;;;2.70;;
67804;SDS011;54603;45.638;11.714;2023-03-03T12:48:16;8.10;;;3.00;;
67804;SDS011;54603;45.638;11.714;2023-03-03T13:01:59;6.70;;;3.10;;
67804;SDS011;54603;45.638;11.714;2023-03-03T13:04:34;4.80;;;2.90;;
67804;SDS011;54603;45.638;11.714;2023-03-03T13:07:06;9.80;;;3.60;;
67804;SDS011;54603;45.638;11.714;2023-03-03T13:15:03;6.00;;;3.70;;
67804;SDS011;54603;45.638;11.714;2023-03-03T13:17:40;9.20;;;3.40;;
67804;SDS011;54603;45.638;11.714;2023-03-03T13:20:24;5.90;;;3.60;;
67804;SDS011;54603;45.638;11.714;2023-03-03T13:25:54;7.90;;;3.50;;
67804;SDS011;54603;45.638;11.714;2023-03-03T13:30:57;8.60;;;3.10;;
67804;SDS011;54603;45.638;11.714;2023-03-03T13:33:33;7.50;;;3.60;;
67804;SDS011;54603;45.638;11.714;2023-03-03T13:36:09;7.70;;;3.60;;
67804;SDS011;54603;45.638;11.714;2023-03-03T13:38:39;5.50;;;3.10;;
67804;SDS011;54603;45.638;11.714;2023-03-03T13:43:58;6.50;;;3.60;;
67804;SDS011;54603;45.638;11.714;2023-03-03T13:46:35;3.90;;;2.90;;
67804;SDS011;54603;45.638;11.714;2023-03-03T14:07:37;4.70;;;3.10;;
67804;SDS011;54603;45.638;11.714;2023-03-03T14:10:14;6.20;;;3.50;;
67804;SDS011;54603;45.638;11.714;2023-03-03T14:15:33;4.60;;;3.30;;
67804;SDS011;54603;45.638;11.714;2023-03-03T14:20:36;5.80;;;3.80;;
67804;SDS011;54603;45.638;11.714;2023-03-03T14:23:19;8.00;;;4.00;;
67804;SDS011;54603;45.638;11.714;2023-03-03T14:25:49;6.70;;;4.10;;
67804;SDS011;54603;45.638;11.714;2023-03-03T14:28:27;6.90;;;3.90;;
67804;SDS011;54603;45.638;11.714;2023-03-03T14:30:55;6.00;;;3.90;;
67804;SDS011;54603;45.638;11.714;2023-03-03T14:33:25;6.00;;;3.90;;
67804;SDS011;54603;45.638;11.714;2023-03-03T14:38:22;10.40;;;4.20;;
67804;SDS011;54603;45.638;11.714;2023-03-03T14:41:12;8.50;;;4.30;;
67804;SDS011;54603;45.638;11.714;2023-03-03T14:43:42;5.40;;;3.60;;
67804;SDS011;54603;45.638;11.714;2023-03-03T14:48:56;7.80;;;3.90;;
67804;SDS011;54603;45.638;11.714;2023-03-03T14:53:49;6.10;;;3.50;;
67804;SDS011;54603;45.638;11.714;2023-03-03T14:56:20;6.40;;;3.80;;
67804;SDS011;54603;45.638;11.714;2023-03-03T14:58:48;5.40;;;3.80;;
67804;SDS011;54603;45.638;11.714;2023-03-03T15:01:22;6.80;;;3.80;;
67804;SDS011;54603;45.638;11.714;2023-03-03T15:12:16;6.80;;;3.50;;
67804;SDS011;54603;45.638;11.714;2023-03-03T15:14:48;5.60;;;3.40;;
67804;SDS011;54603;45.638;11.714;2023-03-03T15:22:21;6.00;;;3.40;;
67804;SDS011;54603;45.638;11.714;2023-03-03T15:25:08;5.40;;;3.20;;
67804;SDS011;54603;45.638;11.714;2023-03-03T15:28:02;7.30;;;3.10;;
67804;SDS011;54603;45.638;11.714;2023-03-03T15:30:50;6.40;;;3.30;;
67804;SDS011;54603;45.638;11.714;2023-03-03T15:33:28;4.30;;;3.10;;
67804;SDS011;54603;45.638;11.714;2023-03-03T15:47:18;5.00;;;3.10;;
67804;SDS011;54603;45.638;11.714;2023-03-03T15:49:54;5.40;;;3.10;;
67804;SDS011;54603;45.638;11.714;2023-03-03T16:04:30;4.50;;;3.00;;
67804;SDS011;54603;45.638;11.714;2023-03-03T16:12:29;5.40;;;3.20;;
67804;SDS011;54603;45.638;11.714;2023-03-03T16:25:35;5.90;;;3.40;;
67804;SDS011;54603;45.638;11.714;2023-03-03T16:39:04;8.80;;;3.30;;
67804;SDS011;54603;45.638;11.714;2023-03-03T16:44:30;12.50;;;3.70;;
67804;SDS011;54603;45.638;11.714;2023-03-03T16:52:49;8.10;;;3.90;;
67804;SDS011;54603;45.638;11.714;2023-03-03T16:55:33;8.80;;;4.20;;
67804;SDS011;54603;45.638;11.714;2023-03-03T17:06:36;13.00;;;4.00;;
67804;SDS011;54603;45.638;11.714;2023-03-03T17:14:09;10.00;;;3.60;;
67804;SDS011;54603;45.638;11.714;2023-03-03T17:20:46;8.80;;;4.20;;
67804;SDS011;54603;45.638;11.714;2023-03-03T17:26:14;7.10;;;4.10;;
67804;SDS011;54603;45.638;11.714;2023-03-03T17:28:35;7.30;;;3.80;;
67804;SDS011;54603;45.638;11.714;2023-03-03T17:31:12;10.10;;;4.60;;
67804;SDS011;54603;45.638;11.714;2023-03-03T17:38:58;15.70;;;4.40;;
67804;SDS011;54603;45.638;11.714;2023-03-03T17:44:10;11.60;;;4.40;;
67804;SDS011;54603;45.638;11.714;2023-03-03T17:46:47;10.80;;;3.90;;
67804;SDS011;54603;45.638;11.714;2023-03-03T17:49:40;12.30;;;4.40;;
67804;SDS011;54603;45.638;11.714;2023-03-03T17:52:36;11.20;;;4.70;;
67804;SDS011;54603;45.638;11.714;2023-03-03T17:58:17;12.10;;;4.90;;
67804;SDS011;54603;45.638;11.714;2023-03-03T18:15:22;13.90;;;5.70;;
67804;SDS011;54603;45.638;11.714;2023-03-03T18:21:01;20.70;;;6.10;;
67804;SDS011;54603;45.638;11.714;2023-03-03T18:31:49;12.80;;;5.80;;
67804;SDS011;54603;45.638;11.714;2023-03-03T18:36:53;15.30;;;5.90;;
67804;SDS011;54603;45.638;11.714;2023-03-03T18:39:37;17.00;;;5.90;;
67804;SDS011;54603;45.638;11.714;2023-03-03T18:44:44;15.00;;;5.70;;
67804;SDS011;54603;45.638;11.714;2023-03-03T18:47:12;21.50;;;6.20;;
67804;SDS011;54603;45.638;11.714;2023-03-03T18:53:04;13.90;;;5.50;;
67804;SDS011;54603;45.638;11.714;2023-03-03T19:06:12;14.50;;;5.30;;
67804;SDS011;54603;45.638;11.714;2023-03-03T19:08:56;14.20;;;4.70;;
67804;SDS011;54603;45.638;11.714;2023-03-03T19:11:35;12.10;;;4.60;;
67804;SDS011;54603;45.638;11.714;2023-03-03T19:16:43;15.60;;;5.20;;
67804;SDS011;54603;45.638;11.714;2023-03-03T19:19:13;11.70;;;5.10;;
67804;SDS011;54603;45.638;11.714;2023-03-03T19:21:40;9.40;;;4.80;;
67804;SDS011;54603;45.638;11.714;2023-03-03T19:26:57;14.30;;;5.60;;
67804;SDS011;54603;45.638;11.714;2023-03-03T19:32:41;9.80;;;4.20;;
67804;SDS011;54603;45.638;11.714;2023-03-03T19:35:19;14.10;;;5.00;;
67804;SDS011;54603;45.638;11.714;2023-03-03T19:43:52;11.80;;;4.50;;
67804;SDS011;54603;45.638;11.714;2023-03-03T19:50:00;15.30;;;4.60;;
67804;SDS011;54603;45.638;11.714;2023-03-03T20:00:56;14.00;;;4.70;;
67804;SDS011;54603;45.638;11.714;2023-03-03T20:07:37;10.90;;;4.10;;
67804;SDS011;54603;45.638;11.714;2023-03-03T20:09:57;13.20;;;4.90;;
67804;SDS011;54603;45.638;11.714;2023-03-03T20:15:23;11.60;;;4.70;;
67804;SDS011;54603;45.638;11.714;2023-03-03T20:17:58;11.50;;;4.70;;
67804;SDS011;54603;45.638;11.714;2023-03-03T20:20:39;9.90;;;3.90;;
67804;SDS011;54603;45.638;11.714;2023-03-03T20:26:38;10.80;;;4.10;;
67804;SDS011;54603;45.638;11.714;2023-03-03T20:29:41;11.90;;;4.30;;
67804;SDS011;54603;45.638;11.714;2023-03-03T20:32:25;12.50;;;5.70;;
67804;SDS011;54603;45.638;11.714;2023-03-03T20:35:13;14.50;;;7.00;;
67804;SDS011;54603;45.638;11.714;2023-03-03T20:37:48;13.30;;;6.80;;
67804;SDS011;54603;45.638;11.714;2023-03-03T21:00:19;12.70;;;6.70;;
67804;SDS011;54603;45.638;11.714;2023-03-03T21:05:24;12.10;;;6.40;;
67804;SDS011;54603;45.638;11.714;2023-03-03T21:10:31;12.80;;;6.90;;
67804;SDS011;54603;45.638;11.714;2023-03-03T21:15:58;16.70;;;7.10;;
67804;SDS011;54603;45.638;11.714;2023-03-03T21:18:27;11.20;;;7.00;;
67804;SDS011;54603;45.638;11.714;2023-03-03T21:20:53;13.80;;;6.90;;
67804;SDS011;54603;45.638;11.714;2023-03-03T21:23:18;12.90;;;6.60;;
67804;SDS011;54603;45.638;11.714;2023-03-03T21:25:49;11.90;;;7.10;;
67804;SDS011;54603;45.638;11.714;2023-03-03T21:30:58;10.90;;;6.80;;
67804;SDS011;54603;45.638;11.714;2023-03-03T21:33:44;9.60;;;6.30;;
67804;SDS011;54603;45.638;11.714;2023-03-03T21:36:17;10.40;;;6.30;;
67804;SDS011;54603;45.638;11.714;2023-03-03T21:38:45;11.40;;;6.50;;
67804;SDS011;54603;45.638;11.714;2023-03-03T21:41:12;11.60;;;6.50;;
67804;SDS011;54603;45.638;11.714;2023-03-03T21:43:48;9.90;;;6.30;;
67804;SDS011;54603;45.638;11.714;2023-03-03T21:46:19;10.10;;;6.20;;
67804;SDS011;54603;45.638;11.714;2023-03-03T21:48:49;12.70;;;7.00;;